createdAt,value
2018-10-19T00:00:54.888Z,12.50
2018-10-19T00:03:23.579Z,12.60
2018-10-19T00:05:52.284Z,12.60
2018-10-19T00:08:21.131Z,12.50
2018-10-19T00:10:50.028Z,12.50
2018-10-19T00:13:18.751Z,12.50
2018-10-19T00:15:47.622Z,12.50
2018-10-19T00:18:16.274Z,12.50
2018-10-19T00:20:45.059Z,12.50
2018-10-19T00:23:13.860Z,11.90
2018-10-19T00:25:42.603Z,12.40
2018-10-19T00:28:11.418Z,12.50
2018-10-19T00:30:40.138Z,12.40
2018-10-19T00:33:08.837Z,12.40
2018-10-19T00:35:37.554Z,12.20
2018-10-19T00:38:06.663Z,12.20
2018-10-19T00:40:35.500Z,12.10
2018-10-19T00:43:04.261Z,11.00
2018-10-19T00:45:38.379Z,12.30
2018-10-19T00:48:15.800Z,12.30
2018-10-19T00:50:45.024Z,12.20
2018-10-19T00:53:14.005Z,12.20
2018-10-19T00:55:42.891Z,14.30
2018-10-19T00:58:11.715Z,12.20
2018-10-19T01:00:41.581Z,12.20
2018-10-19T01:03:10.556Z,11.80
2018-10-19T01:05:40.165Z,11.70
2018-10-19T01:08:09.625Z,11.80
2018-10-19T01:10:38.351Z,11.90
2018-10-19T01:13:07.490Z,12.00
2018-10-19T01:15:36.947Z,11.90
2018-10-19T01:18:05.786Z,10.00
2018-10-19T01:20:34.690Z,11.90
2018-10-19T01:23:03.428Z,12.00
2018-10-19T01:25:32.955Z,12.20
2018-10-19T01:28:04.444Z,12.20
2018-10-19T01:30:33.135Z,12.10
2018-10-19T01:33:01.934Z,11.90
2018-10-19T01:35:31.325Z,11.90
2018-10-19T01:38:00.040Z,12.10
2018-10-19T01:40:28.740Z,12.10
2018-10-19T01:42:57.497Z,12.00
2018-10-19T01:45:26.184Z,12.00
2018-10-19T01:47:54.850Z,12.10
2018-10-19T01:50:23.780Z,12.20
2018-10-19T01:52:52.532Z,12.10
2018-10-19T01:55:21.431Z,12.10
2018-10-19T01:57:51.166Z,12.10
2018-10-19T02:00:20.506Z,12.10
2018-10-19T02:02:49.299Z,12.10
2018-10-19T02:05:18.098Z,12.00
2018-10-19T02:07:46.996Z,12.00
2018-10-19T02:10:16.597Z,12.00
2018-10-19T02:12:45.403Z,12.00
2018-10-19T02:15:14.470Z,11.90
2018-10-19T02:17:43.210Z,11.90
2018-10-19T02:20:11.911Z,11.90
2018-10-19T02:22:40.692Z,14.10
2018-10-19T02:25:12.100Z,11.90
2018-10-19T02:27:40.855Z,11.60
2018-10-19T02:30:09.555Z,11.80
2018-10-19T02:32:38.312Z,11.80
2018-10-19T02:35:08.493Z,11.80
2018-10-19T02:37:37.118Z,11.70
2018-10-19T02:40:06.851Z,11.60
2018-10-19T02:42:36.055Z,11.60
2018-10-19T02:45:05.138Z,11.60
2018-10-19T02:47:33.869Z,11.60
2018-10-19T02:50:02.775Z,11.50
2018-10-19T02:52:31.518Z,11.50
2018-10-19T02:55:00.371Z,11.50
2018-10-19T02:57:28.948Z,11.50
2018-10-19T02:59:57.651Z,11.60
2018-10-19T03:02:26.500Z,11.50
2018-10-19T03:04:55.258Z,11.50
2018-10-19T03:07:24.101Z,11.50
2018-10-19T03:09:52.996Z,11.40
2018-10-19T03:12:21.597Z,11.40
2018-10-19T03:14:50.392Z,11.40
2018-10-19T03:17:19.122Z,11.40
2018-10-19T03:19:47.779Z,10.60
2018-10-19T03:22:16.497Z,11.40
2018-10-19T03:24:45.361Z,11.30
2018-10-19T03:27:14.142Z,11.30
2018-10-19T03:29:42.983Z,11.30
2018-10-19T03:32:12.016Z,11.30
2018-10-19T03:34:42.798Z,11.30
2018-10-19T03:37:11.491Z,11.30
2018-10-19T03:39:40.481Z,11.30
2018-10-19T03:42:09.183Z,11.30
2018-10-19T03:44:38.003Z,11.20
2018-10-19T03:47:06.930Z,11.30
2018-10-19T03:49:35.563Z,10.50
2018-10-19T03:52:04.231Z,11.20
2018-10-19T03:54:33.019Z,11.30
2018-10-19T03:57:01.789Z,11.30
2018-10-19T03:59:31.031Z,11.30
2018-10-19T04:01:59.862Z,11.30
2018-10-19T04:04:28.637Z,11.20
2018-10-19T04:06:57.415Z,11.20
2018-10-19T04:09:26.212Z,11.20
2018-10-19T04:11:54.801Z,11.30
2018-10-19T04:14:23.488Z,11.20
2018-10-19T04:16:53.327Z,11.30
2018-10-19T04:19:22.286Z,10.20
2018-10-19T04:21:52.056Z,11.30
2018-10-19T04:24:20.853Z,11.20
2018-10-19T04:26:49.535Z,11.00
2018-10-19T04:29:18.315Z,10.90
2018-10-19T04:31:47.123Z,12.60
2018-10-19T04:34:15.888Z,10.80
2018-10-19T04:36:44.759Z,10.80
2018-10-19T04:39:13.766Z,10.80
2018-10-19T04:41:42.489Z,10.80
2018-10-19T04:44:11.231Z,10.80
2018-10-19T04:46:41.498Z,10.80
2018-10-19T04:49:10.154Z,10.70
2018-10-19T04:51:39.996Z,10.70
2018-10-19T04:54:08.775Z,10.70
2018-10-19T04:56:37.871Z,10.70
2018-10-19T04:59:06.857Z,10.70
2018-10-19T05:01:35.507Z,10.70
2018-10-19T05:04:04.777Z,10.70
2018-10-19T05:06:33.569Z,10.70
2018-10-19T05:09:10.071Z,10.80
2018-10-19T05:11:40.634Z,10.80
2018-10-19T05:14:10.804Z,10.80
2018-10-19T05:16:39.399Z,10.80
2018-10-19T05:19:08.529Z,10.80
2018-10-19T05:21:40.241Z,10.80
2018-10-19T05:24:09.725Z,10.80
2018-10-19T05:26:41.035Z,10.70
2018-10-19T05:29:10.191Z,10.50
2018-10-19T05:31:49.647Z,10.50
2018-10-19T05:34:23.803Z,10.50
2018-10-19T05:36:52.733Z,10.50
2018-10-19T05:39:21.487Z,10.50
2018-10-19T05:41:50.237Z,10.60
2018-10-19T05:44:18.993Z,10.50
2018-10-19T05:46:47.623Z,10.50
2018-10-19T05:49:16.250Z,10.50
2018-10-19T05:51:44.914Z,9.90
2018-10-19T05:54:15.002Z,10.40
2018-10-19T05:56:43.859Z,10.40
2018-10-19T05:59:12.573Z,10.40
2018-10-19T06:01:41.180Z,10.40
2018-10-19T06:04:11.315Z,10.40
2018-10-19T06:06:40.090Z,10.40
2018-10-19T06:09:10.045Z,10.50
2018-10-19T06:11:38.796Z,10.50
2018-10-19T06:14:08.536Z,10.60
2018-10-19T06:16:37.400Z,10.70
2018-10-19T06:19:06.454Z,10.70
2018-10-19T06:21:35.158Z,10.70
2018-10-19T06:24:03.867Z,10.80
2018-10-19T06:26:34.689Z,10.80
2018-10-19T06:29:03.610Z,10.80
2018-10-19T06:31:32.271Z,10.80
2018-10-19T06:34:00.995Z,10.80
2018-10-19T06:36:31.187Z,10.80
2018-10-19T06:38:59.947Z,10.80
2018-10-19T06:41:28.503Z,10.80
2018-10-19T06:43:57.502Z,10.90
2018-10-19T06:46:26.436Z,11.00
2018-10-19T06:48:55.096Z,11.00
2018-10-19T06:51:24.756Z,11.00
2018-10-19T06:53:53.488Z,11.00
2018-10-19T06:56:22.238Z,11.00
2018-10-19T06:58:51.005Z,11.00
2018-10-19T07:01:20.914Z,11.00
2018-10-19T07:03:49.698Z,11.00
2018-10-19T07:06:18.470Z,11.10
2018-10-19T07:08:47.376Z,11.10
2018-10-19T07:11:16.083Z,11.20
2018-10-19T07:13:45.022Z,11.20
2018-10-19T07:16:13.916Z,11.30
2018-10-19T07:18:42.687Z,11.30
2018-10-19T07:21:11.399Z,11.30
2018-10-19T07:23:40.144Z,11.40
2018-10-19T07:26:09.098Z,11.40
2018-10-19T07:28:38.398Z,11.50
2018-10-19T07:31:07.304Z,11.60
2018-10-19T07:33:42.410Z,11.60
2018-10-19T07:36:11.343Z,11.70
2018-10-19T07:38:40.137Z,11.80
2018-10-19T07:41:08.927Z,11.90
2018-10-19T07:43:38.580Z,12.00
2018-10-19T07:46:07.296Z,12.10
2018-10-19T07:48:36.267Z,12.30
2018-10-19T07:51:05.082Z,12.50
2018-10-19T07:53:34.165Z,12.50
2018-10-19T07:56:03.081Z,12.60
2018-10-19T07:58:31.701Z,12.60
2018-10-19T08:01:00.387Z,12.60
2018-10-19T08:03:29.178Z,12.60
2018-10-19T08:05:57.966Z,12.60
2018-10-19T08:08:26.800Z,12.70
2018-10-19T08:10:55.867Z,12.70
2018-10-19T08:13:24.679Z,12.80
2018-10-19T08:15:53.535Z,12.80
2018-10-19T08:18:22.501Z,12.90
2018-10-19T08:20:51.552Z,13.00
2018-10-19T08:23:20.559Z,13.00
2018-10-19T08:25:49.698Z,13.10
2018-10-19T08:28:18.636Z,12.80
2018-10-19T08:30:47.643Z,13.30
2018-10-19T08:33:18.613Z,13.40
2018-10-19T08:35:47.282Z,13.50
2018-10-19T08:38:16.000Z,13.50
2018-10-19T08:40:44.836Z,13.70
2018-10-19T08:43:13.785Z,13.80
2018-10-19T08:45:42.623Z,13.80
2018-10-19T08:48:11.394Z,13.90
2018-10-19T08:50:40.779Z,13.90
2018-10-19T08:53:10.759Z,14.00
2018-10-19T08:55:39.541Z,14.10
2018-10-19T08:58:08.413Z,14.20
2018-10-19T09:00:37.098Z,14.30
2018-10-19T09:03:06.411Z,14.40
2018-10-19T09:05:35.096Z,14.60
2018-10-19T09:08:04.043Z,14.70
2018-10-19T09:10:32.904Z,14.90
2018-10-19T09:13:01.589Z,14.90
2018-10-19T09:15:30.315Z,14.90
2018-10-19T09:17:58.978Z,15.00
2018-10-19T09:20:27.889Z,15.10
2018-10-19T09:22:56.876Z,15.20
2018-10-19T09:25:25.661Z,15.40
2018-10-19T09:27:57.031Z,15.60
2018-10-19T09:30:27.503Z,15.90
2018-10-19T09:32:56.974Z,15.90
2018-10-19T09:35:26.145Z,16.00
2018-10-19T09:37:54.872Z,16.20
2018-10-19T09:40:23.655Z,16.50
2018-10-19T09:42:52.729Z,16.20
2018-10-19T09:45:27.718Z,16.00
2018-10-19T09:47:56.689Z,15.90
2018-10-19T09:50:32.241Z,16.10
2018-10-19T09:53:01.258Z,16.40
2018-10-19T09:55:30.211Z,16.40
2018-10-19T09:58:00.280Z,16.80
2018-10-19T10:00:41.932Z,17.00
2018-10-19T10:03:20.292Z,17.00
2018-10-19T10:05:53.142Z,17.70
2018-10-19T10:08:22.543Z,18.20
2018-10-19T10:10:51.293Z,18.90
2018-10-19T10:13:20.130Z,19.60
2018-10-19T10:15:54.096Z,20.10
2018-10-19T10:18:23.275Z,19.90
2018-10-19T10:20:52.351Z,20.00
2018-10-19T10:23:21.344Z,19.80
2018-10-19T10:25:50.075Z,19.50
2018-10-19T10:28:18.860Z,20.30
2018-10-19T10:30:47.953Z,20.80
2018-10-19T10:33:16.647Z,21.10
2018-10-19T10:35:47.060Z,21.40
2018-10-19T10:38:16.748Z,20.70
2018-10-19T10:40:45.456Z,20.30
2018-10-19T10:43:14.384Z,20.80
2018-10-19T10:45:43.419Z,21.70
2018-10-19T10:48:13.798Z,22.60
2018-10-19T10:50:43.029Z,22.30
2018-10-19T10:53:12.042Z,22.90
2018-10-19T10:55:40.766Z,23.50
2018-10-19T10:58:09.636Z,23.40
2018-10-19T11:00:38.267Z,22.90
2018-10-19T11:03:09.463Z,22.50
2018-10-19T11:05:38.526Z,22.90
2018-10-19T11:08:07.780Z,23.60
2018-10-19T11:10:37.227Z,23.70
2018-10-19T11:13:06.244Z,24.20
2018-10-19T11:15:35.042Z,23.90
2018-10-19T11:18:03.744Z,23.60
2018-10-19T11:20:32.556Z,23.60
2018-10-19T11:23:01.318Z,23.90
2018-10-19T11:25:30.086Z,24.10
2018-10-19T11:27:59.037Z,23.90
2018-10-19T11:30:33.428Z,23.20
2018-10-19T11:33:02.163Z,24.00
2018-10-19T11:35:31.184Z,23.50
2018-10-19T11:37:59.963Z,23.80
2018-10-19T11:40:34.512Z,23.90
2018-10-19T11:43:03.498Z,24.20
2018-10-19T11:45:33.346Z,24.10
2018-10-19T11:48:02.224Z,24.00
2018-10-19T11:50:31.154Z,25.00
2018-10-19T11:53:00.170Z,25.70
2018-10-19T11:55:28.943Z,23.90
2018-10-19T11:57:57.642Z,22.70
2018-10-19T12:00:26.284Z,23.80
2018-10-19T12:02:55.145Z,23.60
2018-10-19T12:05:23.955Z,23.40
2018-10-19T12:07:52.772Z,24.40
2018-10-19T12:10:27.038Z,25.10
2018-10-19T12:13:01.531Z,25.20
2018-10-19T12:15:30.743Z,25.00
2018-10-19T12:17:59.834Z,24.90
2018-10-19T12:20:28.561Z,24.60
2018-10-19T12:22:57.480Z,23.40
2018-10-19T12:25:26.255Z,25.40
2018-10-19T12:27:54.998Z,25.40
2018-10-19T12:30:23.628Z,25.20
2018-10-19T12:32:52.866Z,24.80
2018-10-19T12:35:21.612Z,24.10
2018-10-19T12:37:50.397Z,24.00
2018-10-19T12:40:19.145Z,24.20
2018-10-19T12:42:48.062Z,24.30
2018-10-19T12:47:31.788Z,23.60
2018-10-19T12:50:00.795Z,24.40
2018-10-19T12:52:29.589Z,24.00
2018-10-19T12:54:59.226Z,24.80
2018-10-19T12:57:28.215Z,25.10
2018-10-19T12:59:57.056Z,24.90
2018-10-19T13:02:25.696Z,24.50
2018-10-19T13:04:54.911Z,23.80
2018-10-19T13:07:25.023Z,22.70
2018-10-19T13:09:54.570Z,21.50
2018-10-19T13:12:24.046Z,21.50
2018-10-19T13:14:52.951Z,21.50
2018-10-19T13:17:35.002Z,21.40
2018-10-19T13:20:03.874Z,21.30
2018-10-19T13:22:32.565Z,21.10
2018-10-19T13:25:01.433Z,21.00
2018-10-19T13:27:30.179Z,20.60
2018-10-19T13:29:59.284Z,20.70
2018-10-19T13:32:27.918Z,20.40
2018-10-19T13:34:56.673Z,20.70
2018-10-19T13:37:25.364Z,20.80
2018-10-19T13:39:54.198Z,20.30
2018-10-19T13:42:22.903Z,20.40
2018-10-19T13:44:51.597Z,20.50
2018-10-19T13:47:20.393Z,20.00
2018-10-19T13:49:49.053Z,20.70
2018-10-19T13:52:17.964Z,20.50
2018-10-19T13:54:46.961Z,20.30
2018-10-19T13:57:16.263Z,20.40
2018-10-19T13:59:45.126Z,20.50
2018-10-19T14:02:13.875Z,21.70
2018-10-19T14:04:42.782Z,20.40
2018-10-19T14:07:11.786Z,20.50
2018-10-19T14:09:40.567Z,20.50
2018-10-19T14:12:09.351Z,20.40
2018-10-19T14:14:38.285Z,20.30
2018-10-19T14:17:07.219Z,20.20
2018-10-19T14:19:36.258Z,20.30
2018-10-19T14:22:05.088Z,20.30
2018-10-19T14:24:34.593Z,21.50
2018-10-19T14:27:04.502Z,20.30
2018-10-19T14:29:33.862Z,20.00
2018-10-19T14:32:10.599Z,19.90
2018-10-19T14:34:39.591Z,19.80
2018-10-19T14:37:08.341Z,19.70
2018-10-19T14:39:37.230Z,17.60
2018-10-19T14:42:08.776Z,20.80
2018-10-19T14:44:41.034Z,19.60
2018-10-19T14:47:11.968Z,19.60
2018-10-19T14:49:40.826Z,19.40
2018-10-19T14:52:09.804Z,19.30
2018-10-19T14:54:38.660Z,19.20
2018-10-19T14:57:07.241Z,19.10
2018-10-19T14:59:35.902Z,19.10
2018-10-19T15:02:05.004Z,18.90
2018-10-19T15:04:35.006Z,18.60
2018-10-19T15:07:03.751Z,18.70
2018-10-19T15:09:32.684Z,18.50
2018-10-19T15:12:01.343Z,18.40
2018-10-19T15:14:30.044Z,18.20
2018-10-19T15:16:59.774Z,18.10
2018-10-19T15:19:28.567Z,18.10
2018-10-19T15:21:57.487Z,18.00
2018-10-19T15:24:26.293Z,17.90
2018-10-19T15:26:55.996Z,17.80
2018-10-19T15:29:25.255Z,17.80
2018-10-19T15:31:53.988Z,17.70
2018-10-19T15:34:23.197Z,17.60
2018-10-19T15:36:52.047Z,17.50
2018-10-19T15:39:30.349Z,17.40
2018-10-19T15:41:59.987Z,17.30
2018-10-19T15:44:33.816Z,17.30
2018-10-19T15:47:05.524Z,15.60
2018-10-19T15:49:34.552Z,17.00
2018-10-19T15:52:03.590Z,16.90
2018-10-19T15:54:32.500Z,15.20
2018-10-19T15:57:01.459Z,16.80
2018-10-19T15:59:34.257Z,16.70
2018-10-19T16:02:03.671Z,16.60
2018-10-19T16:04:36.036Z,15.60
2018-10-19T16:07:05.958Z,14.30
2018-10-19T16:09:41.732Z,16.40
2018-10-19T16:12:10.415Z,16.30
2018-10-19T16:14:39.131Z,16.20
2018-10-19T16:17:07.950Z,16.20
2018-10-19T16:19:37.301Z,16.10
2018-10-19T16:22:07.730Z,16.00
2018-10-19T16:24:37.272Z,16.00
2018-10-19T16:27:06.099Z,15.90
2018-10-19T16:29:34.674Z,15.90
2018-10-19T16:32:06.069Z,14.80
2018-10-19T16:34:34.821Z,15.80
2018-10-19T16:37:03.475Z,15.80
2018-10-19T16:39:32.195Z,15.70
2018-10-19T16:42:00.970Z,15.70
2018-10-19T16:44:29.535Z,15.70
2018-10-19T16:47:02.416Z,15.60
2018-10-19T16:49:33.262Z,15.60
2018-10-19T16:52:02.466Z,15.60
2018-10-19T16:54:31.162Z,15.60
2018-10-19T16:56:59.857Z,15.60
2018-10-19T16:59:28.584Z,15.60
2018-10-19T17:01:57.319Z,15.60
2018-10-19T17:04:28.732Z,15.50
2018-10-19T17:06:57.331Z,15.50
2018-10-19T17:09:30.646Z,15.50
2018-10-19T17:12:07.374Z,15.50
2018-10-19T17:14:36.211Z,15.40
2018-10-19T17:17:05.578Z,15.40
2018-10-19T17:19:34.256Z,15.30
2018-10-19T17:22:05.646Z,15.30
2018-10-19T17:24:36.731Z,15.30
2018-10-19T17:27:06.794Z,15.20
2018-10-19T17:29:35.443Z,15.20
2018-10-19T17:32:04.210Z,15.20
2018-10-19T17:34:34.521Z,15.20
2018-10-19T17:37:03.704Z,15.10
2018-10-19T17:39:32.411Z,15.10
2018-10-19T17:42:01.138Z,15.10
2018-10-19T17:44:29.873Z,15.10
2018-10-19T17:46:58.648Z,15.10
2018-10-19T17:49:28.278Z,15.10
2018-10-19T17:51:57.006Z,15.10
2018-10-19T17:54:26.020Z,15.20
2018-10-19T17:56:54.926Z,15.00
2018-10-19T17:59:28.404Z,15.00
2018-10-19T18:01:57.373Z,14.60
2018-10-19T18:04:26.229Z,13.20
2018-10-19T18:06:54.941Z,14.90
2018-10-19T18:09:26.850Z,14.90
2018-10-19T18:11:55.513Z,14.90
2018-10-19T18:14:24.221Z,13.20
2018-10-19T18:16:53.616Z,14.90
2018-10-19T18:19:22.216Z,14.80
2018-10-19T18:21:51.073Z,14.80
2018-10-19T18:24:20.375Z,14.80
2018-10-19T18:26:49.286Z,14.80
2018-10-19T18:29:19.846Z,14.70
2018-10-19T18:31:48.539Z,14.70
2018-10-19T18:34:17.190Z,14.70
2018-10-19T18:36:46.258Z,14.70
2018-10-19T18:39:15.064Z,14.70
2018-10-19T18:41:45.065Z,14.70
2018-10-19T18:44:13.806Z,14.60
2018-10-19T18:46:42.304Z,14.60
2018-10-19T18:49:12.036Z,14.60
2018-10-19T18:51:41.347Z,14.60
2018-10-19T18:54:10.398Z,14.60
2018-10-19T18:56:39.215Z,14.60
2018-10-19T18:59:08.004Z,14.60
2018-10-19T19:01:36.698Z,14.60
2018-10-19T19:04:06.426Z,14.60
2018-10-19T19:06:35.096Z,14.50
2018-10-19T19:09:03.859Z,14.50
2018-10-19T19:11:32.789Z,14.50
2018-10-19T19:14:01.344Z,14.40
2018-10-19T19:16:30.877Z,14.40
2018-10-19T19:18:59.507Z,14.30
2018-10-19T19:21:28.190Z,14.30
2018-10-19T19:24:01.882Z,14.30
2018-10-19T19:26:30.494Z,14.30
2018-10-19T19:28:59.956Z,14.30
2018-10-19T19:31:28.578Z,14.30
2018-10-19T19:34:02.967Z,14.30
2018-10-19T19:36:31.611Z,14.30
2018-10-19T19:39:00.289Z,14.30
2018-10-19T19:41:34.264Z,14.20
2018-10-19T19:44:03.575Z,14.20
2018-10-19T19:46:32.286Z,14.20
2018-10-19T19:49:07.205Z,14.20
2018-10-19T19:51:35.776Z,14.20
2018-10-19T19:54:04.820Z,12.30
2018-10-19T19:56:33.598Z,14.10
2018-10-19T19:59:03.844Z,14.10
2018-10-19T20:01:32.820Z,14.10
2018-10-19T20:04:03.465Z,14.10
2018-10-19T20:06:32.523Z,14.00
2018-10-19T20:09:01.634Z,14.00
2018-10-19T20:11:30.354Z,12.10
2018-10-19T20:13:59.172Z,14.00
2018-10-19T20:16:27.795Z,14.00
2018-10-19T20:18:56.424Z,14.00
2018-10-19T20:21:25.909Z,12.10
2018-10-19T20:23:54.830Z,14.00
2018-10-19T20:26:23.538Z,14.00
2018-10-19T20:28:53.580Z,14.10
2018-10-19T20:31:22.701Z,14.00
2018-10-19T20:33:51.358Z,13.90
2018-10-19T20:36:22.581Z,13.90
2018-10-19T20:38:51.390Z,13.90
2018-10-19T20:41:22.306Z,13.90
2018-10-19T20:43:51.406Z,13.90
2018-10-19T20:46:20.096Z,13.60
2018-10-19T20:48:49.334Z,13.60
2018-10-19T20:51:19.025Z,13.50
2018-10-19T20:53:48.055Z,13.60
2018-10-19T20:56:16.791Z,13.60
2018-10-19T20:58:50.797Z,13.60
2018-10-19T21:01:19.546Z,13.50
2018-10-19T21:03:48.211Z,13.40
2018-10-19T21:06:17.182Z,13.30
2018-10-19T21:08:46.049Z,13.20
2018-10-19T21:11:14.757Z,13.30
2018-10-19T21:13:43.579Z,13.30
2018-10-19T21:16:13.585Z,13.30
2018-10-19T21:18:42.507Z,13.30
2018-10-19T21:21:11.399Z,13.30
2018-10-19T21:23:40.146Z,13.40
2018-10-19T21:26:09.437Z,11.90
2018-10-19T21:28:38.184Z,13.40
2018-10-19T21:31:06.922Z,13.40
2018-10-19T21:33:35.619Z,13.40
2018-10-19T21:36:04.605Z,13.40
2018-10-19T21:38:33.306Z,13.40
2018-10-19T21:41:02.202Z,13.40
2018-10-19T21:43:31.021Z,13.30
2018-10-19T21:46:01.878Z,13.20
2018-10-19T21:48:30.891Z,13.20
2018-10-19T21:50:59.897Z,13.10
2018-10-19T21:53:30.471Z,13.10
2018-10-19T21:55:59.333Z,13.10
2018-10-19T21:58:28.007Z,13.00
2018-10-19T22:00:56.726Z,13.00
2018-10-19T22:03:25.635Z,14.90
2018-10-19T22:05:54.329Z,12.90
2018-10-19T22:08:23.008Z,12.90
2018-10-19T22:10:51.938Z,12.90
2018-10-19T22:13:20.703Z,12.90
2018-10-19T22:15:49.387Z,12.80
2018-10-19T22:18:18.133Z,12.80
2018-10-19T22:20:46.976Z,12.80
2018-10-19T22:23:16.242Z,12.80
2018-10-19T22:25:45.056Z,12.80
2018-10-19T22:28:14.838Z,12.70
2018-10-19T22:30:43.601Z,12.70
2018-10-19T22:33:14.132Z,12.70
2018-10-19T22:35:42.903Z,12.70
2018-10-19T22:38:11.585Z,12.70
2018-10-19T22:40:40.290Z,12.60
2018-10-19T22:43:08.992Z,12.60
2018-10-19T22:45:37.646Z,12.60
2018-10-19T22:48:08.161Z,12.60
2018-10-19T22:50:36.909Z,12.50
2018-10-19T22:53:05.838Z,12.50
2018-10-19T22:55:34.578Z,12.50
2018-10-19T22:58:03.362Z,12.40
2018-10-19T23:00:32.026Z,12.30
2018-10-19T23:03:01.012Z,12.30
2018-10-19T23:05:29.838Z,12.40
2018-10-19T23:07:58.550Z,12.40
2018-10-19T23:10:29.302Z,12.40
2018-10-19T23:12:58.035Z,12.40
2018-10-19T23:15:28.543Z,12.40
2018-10-19T23:17:57.365Z,12.20
2018-10-19T23:20:27.231Z,12.20
2018-10-19T23:22:56.049Z,12.30
2018-10-19T23:25:24.921Z,12.40
2018-10-19T23:27:53.702Z,12.40
2018-10-19T23:30:22.482Z,12.40
2018-10-19T23:32:51.331Z,12.30
2018-10-19T23:35:20.842Z,12.30
2018-10-19T23:37:49.666Z,12.30
2018-10-19T23:40:18.442Z,12.20
2018-10-19T23:42:47.118Z,12.20
2018-10-19T23:45:16.215Z,12.10
2018-10-19T23:47:45.075Z,12.10
2018-10-19T23:50:13.790Z,12.10
2018-10-19T23:52:42.543Z,12.00
2018-10-19T23:55:11.793Z,12.00
2018-10-19T23:57:40.517Z,12.00
